createdAt,value
2018-06-15T00:00:10.436Z,1.97
2018-06-15T00:02:38.824Z,2.33
2018-06-15T00:05:07.471Z,2.50
2018-06-15T00:07:35.831Z,2.13
2018-06-15T00:10:04.352Z,2.20
2018-06-15T00:12:33.016Z,2.13
2018-06-15T00:15:01.363Z,2.43
2018-06-15T00:17:30.288Z,1.90
2018-06-15T00:19:58.915Z,2.50
2018-06-15T00:22:27.267Z,2.60
2018-06-15T00:24:56.239Z,2.23
2018-06-15T00:27:24.851Z,1.97
2018-06-15T00:29:53.760Z,2.10
2018-06-15T00:32:22.125Z,1.93
2018-06-15T00:34:50.725Z,2.00
2018-06-15T00:37:19.440Z,2.60
2018-06-15T00:39:47.791Z,2.37
2018-06-15T00:42:16.131Z,2.23
2018-06-15T00:44:44.806Z,2.67
2018-06-15T00:47:13.195Z,1.80
2018-06-15T00:49:42.206Z,2.27
2018-06-15T00:52:10.859Z,3.03
2018-06-15T00:54:39.208Z,2.17
2018-06-15T00:57:19.595Z,2.37
2018-06-15T00:59:48.283Z,1.93
2018-06-15T01:02:16.661Z,2.23
2018-06-15T01:04:45.034Z,1.87
2018-06-15T01:07:13.743Z,2.97
2018-06-15T01:09:42.931Z,2.80
2018-06-15T01:12:11.592Z,2.87
2018-06-15T01:14:40.246Z,2.03
2018-06-15T01:17:08.932Z,2.10
2018-06-15T01:19:37.311Z,2.53
2018-06-15T01:22:05.943Z,2.23
2018-06-15T01:24:34.403Z,3.00
2018-06-15T01:27:02.771Z,2.23
2018-06-15T01:29:31.695Z,2.30
2018-06-15T01:32:00.408Z,2.40
2018-06-15T01:34:29.087Z,3.17
2018-06-15T01:36:57.749Z,2.73
2018-06-15T01:39:26.646Z,2.60
2018-06-15T01:41:55.008Z,3.17
2018-06-15T01:44:24.211Z,2.40
2018-06-15T01:46:52.660Z,2.00
2018-06-15T01:49:22.765Z,2.93
2018-06-15T01:51:53.619Z,2.30
2018-06-15T01:54:23.593Z,2.93
2018-06-15T01:56:53.729Z,2.37
2018-06-15T01:59:22.996Z,3.37
2018-06-15T02:01:51.896Z,3.17
2018-06-15T02:04:20.576Z,2.20
2018-06-15T02:06:48.968Z,2.70
2018-06-15T02:09:17.855Z,2.13
2018-06-15T02:11:46.480Z,1.77
2018-06-15T02:14:15.140Z,2.53
2018-06-15T02:16:43.500Z,2.10
2018-06-15T02:19:11.884Z,1.97
2018-06-15T02:21:40.565Z,2.77
2018-06-15T02:24:09.283Z,2.23
2018-06-15T02:26:37.667Z,3.20
2018-06-15T02:29:06.255Z,2.37
2018-06-15T02:31:34.892Z,2.60
2018-06-15T02:34:03.242Z,2.67
2018-06-15T02:36:31.624Z,2.60
2018-06-15T02:38:59.986Z,2.33
2018-06-15T02:41:28.375Z,2.80
2018-06-15T02:43:56.872Z,2.10
2018-06-15T02:46:25.257Z,2.70
2018-06-15T02:48:54.164Z,2.87
2018-06-15T02:51:22.819Z,2.03
2018-06-15T02:53:51.165Z,2.50
2018-06-15T02:56:19.564Z,2.60
2018-06-15T02:58:47.919Z,2.60
2018-06-15T03:01:17.096Z,2.77
2018-06-15T03:03:45.588Z,3.20
2018-06-15T03:06:13.935Z,2.73
2018-06-15T03:08:42.585Z,3.00
2018-06-15T03:11:11.491Z,1.60
2018-06-15T03:13:40.138Z,2.80
2018-06-15T03:16:08.519Z,3.50
2018-06-15T03:18:37.127Z,3.67
2018-06-15T03:21:06.020Z,2.47
2018-06-15T03:23:34.716Z,2.00
2018-06-15T03:26:03.627Z,2.03
2018-06-15T03:28:31.983Z,3.33
2018-06-15T03:31:00.871Z,2.90
2018-06-15T03:33:29.845Z,3.13
2018-06-15T03:35:58.211Z,2.50
2018-06-15T03:38:27.195Z,2.83
2018-06-15T03:40:55.820Z,2.20
2018-06-15T03:43:24.451Z,3.23
2018-06-15T03:45:53.231Z,3.47
2018-06-15T03:48:21.659Z,2.80
2018-06-15T03:50:50.035Z,3.03
2018-06-15T03:53:18.891Z,2.97
2018-06-15T03:55:47.249Z,2.20
2018-06-15T03:58:15.663Z,3.27
2018-06-15T04:00:44.049Z,2.73
2018-06-15T04:03:12.611Z,2.93
2018-06-15T04:05:41.435Z,3.07
2018-06-15T04:08:10.068Z,3.40
2018-06-15T04:10:38.435Z,2.93
2018-06-15T04:13:06.834Z,2.67
2018-06-15T04:15:35.492Z,3.30
2018-06-15T04:18:05.595Z,2.90
2018-06-15T04:20:35.560Z,3.33
2018-06-15T04:23:03.918Z,2.73
2018-06-15T04:25:32.667Z,3.17
2018-06-15T04:28:01.043Z,3.60
2018-06-15T04:30:29.938Z,3.37
2018-06-15T04:32:58.648Z,2.60
2018-06-15T04:35:27.812Z,2.53
2018-06-15T04:37:56.175Z,2.87
2018-06-15T04:40:26.747Z,2.67
2018-06-15T04:42:57.530Z,2.57
2018-06-15T04:45:25.907Z,2.77
2018-06-15T04:47:54.823Z,3.20
2018-06-15T04:50:23.179Z,2.30
2018-06-15T04:52:51.916Z,2.80
2018-06-15T04:55:20.574Z,3.07
2018-06-15T04:57:56.415Z,2.60
2018-06-15T05:00:25.453Z,2.77
2018-06-15T05:02:54.159Z,2.70
2018-06-15T05:05:22.569Z,2.87
2018-06-15T05:07:50.915Z,2.27
2018-06-15T05:10:18.990Z,2.57
2018-06-15T05:12:47.952Z,2.63
2018-06-15T05:15:16.322Z,3.07
2018-06-15T05:17:44.991Z,3.17
2018-06-15T05:20:13.615Z,2.47
2018-06-15T05:22:42.567Z,2.87
2018-06-15T05:25:11.253Z,3.77
2018-06-15T05:27:39.964Z,2.47
2018-06-15T05:30:08.623Z,2.53
2018-06-15T05:32:37.565Z,2.70
2018-06-15T05:35:06.075Z,2.70
2018-06-15T05:37:34.475Z,3.07
2018-06-15T05:40:03.204Z,2.77
2018-06-15T05:42:32.196Z,2.90
2018-06-15T05:45:01.048Z,2.90
2018-06-15T05:47:29.731Z,2.40
2018-06-15T05:49:58.880Z,2.90
2018-06-15T05:52:27.215Z,3.07
2018-06-15T05:54:55.619Z,3.40
2018-06-15T05:57:24.271Z,3.40
2018-06-15T05:59:53.155Z,3.00
2018-06-15T06:02:21.867Z,2.30
2018-06-15T06:04:50.379Z,2.43
2018-06-15T06:07:19.051Z,2.47
2018-06-15T06:09:47.756Z,2.87
2018-06-15T06:12:17.019Z,2.67
2018-06-15T06:14:45.891Z,2.50
2018-06-15T06:17:14.601Z,2.70
2018-06-15T06:19:43.740Z,2.90
2018-06-15T06:22:12.938Z,2.70
2018-06-15T06:24:41.576Z,3.00
2018-06-15T06:27:10.274Z,2.77
2018-06-15T06:29:38.954Z,2.70
2018-06-15T06:32:07.323Z,2.13
2018-06-15T06:34:35.923Z,2.80
2018-06-15T06:37:04.322Z,2.70
2018-06-15T06:39:32.945Z,2.13
2018-06-15T06:42:01.833Z,3.20
2018-06-15T06:44:30.205Z,2.17
2018-06-15T06:46:58.580Z,2.80
2018-06-15T06:49:27.511Z,2.37
2018-06-15T06:51:56.179Z,2.90
2018-06-15T06:54:24.531Z,3.60
2018-06-15T06:56:53.543Z,2.70
2018-06-15T06:59:22.223Z,3.17
2018-06-15T07:01:50.938Z,2.50
2018-06-15T07:04:19.288Z,2.63
2018-06-15T07:06:48.197Z,3.13
2018-06-15T07:09:17.091Z,3.80
2018-06-15T07:11:45.696Z,3.13
2018-06-15T07:14:14.408Z,3.80
2018-06-15T07:16:42.760Z,3.90
2018-06-15T07:19:11.927Z,3.40
2018-06-15T07:21:40.324Z,3.37
2018-06-15T07:24:09.207Z,3.57
2018-06-15T07:26:37.895Z,3.63
2018-06-15T07:29:06.282Z,3.00
2018-06-15T07:31:34.647Z,3.70
2018-06-15T07:34:03.016Z,4.57
2018-06-15T07:36:31.718Z,3.30
2018-06-15T07:39:00.360Z,3.67
2018-06-15T07:41:28.959Z,3.73
2018-06-15T07:43:57.432Z,4.23
2018-06-15T07:46:25.831Z,3.00
2018-06-15T07:48:54.503Z,3.67
2018-06-15T07:51:23.149Z,3.30
2018-06-15T07:53:51.503Z,3.40
2018-06-15T07:56:20.451Z,3.90
2018-06-15T07:58:49.142Z,3.57
2018-06-15T08:01:18.159Z,3.43
2018-06-15T08:03:52.368Z,5.30
2018-06-15T08:06:21.040Z,4.53
2018-06-15T08:08:49.715Z,5.13
2018-06-15T08:11:18.355Z,3.67
2018-06-15T08:13:47.055Z,4.53
2018-06-15T08:16:15.425Z,4.67
2018-06-15T08:18:43.766Z,4.07
2018-06-15T08:21:12.134Z,4.77
2018-06-15T08:23:40.507Z,4.63
2018-06-15T08:26:09.192Z,5.07
2018-06-15T08:28:37.827Z,4.30
2018-06-15T08:31:06.183Z,3.97
2018-06-15T08:33:34.820Z,3.87
2018-06-15T08:36:03.446Z,3.73
2018-06-15T08:38:31.847Z,3.77
2018-06-15T08:41:00.551Z,2.93
2018-06-15T08:43:28.611Z,3.87
2018-06-15T08:45:57.082Z,3.50
2018-06-15T08:48:25.436Z,3.53
2018-06-15T08:50:54.301Z,3.57
2018-06-15T08:53:22.983Z,3.30
2018-06-15T08:55:51.444Z,4.23
2018-06-15T08:58:20.055Z,3.37
2018-06-15T09:00:48.839Z,3.73
2018-06-15T09:03:17.287Z,3.20
2018-06-15T09:05:45.652Z,3.77
2018-06-15T09:08:14.323Z,3.37
2018-06-15T09:10:42.680Z,3.53
2018-06-15T09:13:11.573Z,4.40
2018-06-15T09:15:39.994Z,3.33
2018-06-15T09:18:09.199Z,4.67
2018-06-15T09:20:37.569Z,4.33
2018-06-15T09:23:06.463Z,3.80
2018-06-15T09:25:34.995Z,4.63
2018-06-15T09:28:03.627Z,3.17
2018-06-15T09:30:31.987Z,3.93
2018-06-15T09:33:00.322Z,3.43
2018-06-15T09:35:28.690Z,3.97
2018-06-15T09:37:57.135Z,3.43
2018-06-15T09:40:26.064Z,3.20
2018-06-15T09:42:54.419Z,3.60
2018-06-15T09:45:22.792Z,3.63
2018-06-15T09:47:51.185Z,4.10
2018-06-15T09:50:19.779Z,3.90
2018-06-15T09:52:48.144Z,3.73
2018-06-15T09:55:16.520Z,4.10
2018-06-15T09:57:45.119Z,4.10
2018-06-15T10:00:17.733Z,4.07
2018-06-15T10:02:46.383Z,3.00
2018-06-15T10:05:15.075Z,3.93
2018-06-15T10:07:43.443Z,3.90
2018-06-15T10:10:11.801Z,3.10
2018-06-15T10:12:40.184Z,3.70
2018-06-15T10:15:09.121Z,4.33
2018-06-15T10:17:37.780Z,3.10
2018-06-15T10:20:06.166Z,3.50
2018-06-15T10:22:34.807Z,3.30
2018-06-15T10:25:03.215Z,4.07
2018-06-15T10:27:31.563Z,3.70
2018-06-15T10:29:59.910Z,3.63
2018-06-15T10:32:28.688Z,3.27
2018-06-15T10:34:57.040Z,2.63
2018-06-15T10:37:26.208Z,4.10
2018-06-15T10:39:54.561Z,4.40
2018-06-15T10:42:23.200Z,3.27
2018-06-15T10:44:51.563Z,3.57
2018-06-15T10:47:20.632Z,3.13
2018-06-15T10:49:49.361Z,3.67
2018-06-15T10:52:17.728Z,3.50
2018-06-15T10:54:46.079Z,3.23
2018-06-15T10:57:14.767Z,3.67
2018-06-15T10:59:43.420Z,3.33
2018-06-15T11:02:12.040Z,3.50
2018-06-15T11:04:40.123Z,3.50
2018-06-15T11:07:08.495Z,2.80
2018-06-15T11:09:36.879Z,3.30
2018-06-15T11:12:06.050Z,3.27
2018-06-15T11:14:34.164Z,2.90
2018-06-15T11:17:02.483Z,3.27
2018-06-15T11:19:30.843Z,3.70
2018-06-15T11:21:59.231Z,3.70
2018-06-15T11:24:27.592Z,3.43
2018-06-15T11:26:55.963Z,3.97
2018-06-15T11:29:24.412Z,3.57
2018-06-15T11:31:53.354Z,4.33
2018-06-15T11:34:21.705Z,3.83
2018-06-15T11:36:50.211Z,4.10
2018-06-15T11:39:18.832Z,3.20
2018-06-15T11:41:47.486Z,3.07
2018-06-15T11:44:15.958Z,3.83
2018-06-15T11:46:44.323Z,4.47
2018-06-15T11:49:28.655Z,3.87
2018-06-15T11:51:57.276Z,3.53
2018-06-15T11:54:26.258Z,3.37
2018-06-15T11:56:54.936Z,3.50
2018-06-15T11:59:23.286Z,3.67
2018-06-15T12:01:51.977Z,4.33
2018-06-15T12:04:20.683Z,4.87
2018-06-15T12:06:49.384Z,3.80
2018-06-15T12:09:18.052Z,4.00
2018-06-15T12:11:46.430Z,3.13
2018-06-15T12:14:15.068Z,4.00
2018-06-15T12:16:43.422Z,4.07
2018-06-15T12:19:11.929Z,3.73
2018-06-15T12:21:40.758Z,3.90
2018-06-15T12:24:09.132Z,2.80
2018-06-15T12:26:38.407Z,2.97
2018-06-15T12:29:08.088Z,3.93
2018-06-15T12:31:37.012Z,3.90
2018-06-15T12:34:05.773Z,4.07
2018-06-15T12:36:34.576Z,3.13
2018-06-15T12:39:04.899Z,3.63
2018-06-15T12:41:33.591Z,3.10
2018-06-15T12:44:02.212Z,3.30
2018-06-15T12:46:30.936Z,3.23
2018-06-15T12:48:59.528Z,3.00
2018-06-15T12:51:27.884Z,3.40
2018-06-15T12:53:56.793Z,3.57
2018-06-15T12:56:25.173Z,3.70
2018-06-15T12:58:53.733Z,3.37
2018-06-15T13:01:22.148Z,3.40
2018-06-15T13:03:50.868Z,3.23
2018-06-15T13:06:20.147Z,4.80
2018-06-15T13:08:48.855Z,3.93
2018-06-15T13:11:18.343Z,3.63
2018-06-15T13:13:46.994Z,3.83
2018-06-15T13:16:15.956Z,4.17
2018-06-15T13:18:45.344Z,4.10
2018-06-15T13:21:15.359Z,4.13
2018-06-15T13:23:44.804Z,3.97
2018-06-15T13:26:14.578Z,4.07
2018-06-15T13:28:43.515Z,3.80
2018-06-15T13:31:14.121Z,3.30
2018-06-15T13:33:42.604Z,2.93
2018-06-15T13:36:12.034Z,4.07
2018-06-15T13:38:42.688Z,2.83
2018-06-15T13:41:11.800Z,3.43
2018-06-15T13:43:40.585Z,3.63
2018-06-15T13:46:10.135Z,3.27
2018-06-15T13:48:39.120Z,3.30
2018-06-15T13:51:08.307Z,3.63
2018-06-15T13:53:36.739Z,2.80
2018-06-15T13:56:05.891Z,3.00
2018-06-15T13:58:34.306Z,2.67
2018-06-15T14:01:04.097Z,2.60
2018-06-15T14:03:33.144Z,3.37
2018-06-15T14:06:01.879Z,3.03
2018-06-15T14:08:30.280Z,3.50
2018-06-15T14:10:58.896Z,3.73
2018-06-15T14:13:28.895Z,3.57
2018-06-15T14:15:57.383Z,4.03
2018-06-15T14:18:26.332Z,3.60
2018-06-15T14:20:54.875Z,3.73
2018-06-15T14:23:23.661Z,4.00
2018-06-15T14:25:52.258Z,2.83
2018-06-15T14:28:20.755Z,3.50
2018-06-15T14:30:49.223Z,3.23
2018-06-15T14:33:17.875Z,3.00
2018-06-15T14:35:47.560Z,3.80
2018-06-15T14:38:21.935Z,2.83
2018-06-15T14:40:50.796Z,4.30
2018-06-15T14:43:19.579Z,3.00
2018-06-15T14:45:47.984Z,3.50
2018-06-15T14:48:16.403Z,3.20
2018-06-15T14:50:44.999Z,4.00
2018-06-15T14:53:19.480Z,3.40
2018-06-15T14:55:48.471Z,3.33
2018-06-15T14:58:16.851Z,3.00
2018-06-15T15:00:45.587Z,3.30
2018-06-15T15:03:14.627Z,2.93
2018-06-15T15:05:43.163Z,3.53
2018-06-15T15:08:11.624Z,3.90
2018-06-15T15:10:40.431Z,3.60
2018-06-15T15:13:09.609Z,3.57
2018-06-15T15:15:38.327Z,3.40
2018-06-15T15:18:07.131Z,3.53
2018-06-15T15:20:38.191Z,3.93
2018-06-15T15:23:06.615Z,2.80
2018-06-15T15:25:34.963Z,3.40
2018-06-15T15:28:04.531Z,3.17
2018-06-15T15:30:33.279Z,2.63
2018-06-15T15:33:01.929Z,2.93
2018-06-15T15:35:31.191Z,2.53
2018-06-15T15:37:59.955Z,3.70
2018-06-15T15:40:28.352Z,2.60
2018-06-15T15:42:57.664Z,2.80
2018-06-15T15:45:26.455Z,4.30
2018-06-15T15:47:54.833Z,3.80
2018-06-15T15:50:23.742Z,2.97
2018-06-15T15:52:52.566Z,2.83
2018-06-15T15:55:23.300Z,2.77
2018-06-15T15:57:52.534Z,3.30
2018-06-15T16:00:21.431Z,2.73
2018-06-15T16:02:50.195Z,3.27
2018-06-15T16:05:18.912Z,2.97
2018-06-15T16:07:47.873Z,3.50
2018-06-15T16:10:17.341Z,3.80
2018-06-15T16:12:47.402Z,3.27
2018-06-15T16:15:16.777Z,3.60
2018-06-15T16:17:45.185Z,2.60
2018-06-15T16:20:13.883Z,3.20
2018-06-15T16:22:42.863Z,3.23
2018-06-15T16:25:11.271Z,3.30
2018-06-15T16:27:39.947Z,2.50
2018-06-15T16:30:09.169Z,2.93
2018-06-15T16:32:37.985Z,2.63
2018-06-15T16:35:06.951Z,3.20
2018-06-15T16:37:35.027Z,3.50
2018-06-15T16:40:03.891Z,2.90
2018-06-15T16:42:32.256Z,3.37
2018-06-15T16:45:01.046Z,3.10
2018-06-15T16:47:30.168Z,2.90
2018-06-15T16:49:58.544Z,3.73
2018-06-15T16:52:27.235Z,3.23
2018-06-15T16:54:55.673Z,3.43
2018-06-15T16:57:24.379Z,3.17
2018-06-15T16:59:52.991Z,3.70
2018-06-15T17:02:21.634Z,2.97
2018-06-15T17:04:50.431Z,3.30
2018-06-15T17:07:18.806Z,3.03
2018-06-15T17:09:47.502Z,2.80
2018-06-15T17:12:15.873Z,2.40
2018-06-15T17:14:44.496Z,2.47
2018-06-15T17:17:12.851Z,2.27
2018-06-15T17:19:41.289Z,2.73
2018-06-15T17:22:10.155Z,2.37
2018-06-15T17:24:40.648Z,2.67
2018-06-15T17:27:09.639Z,3.00
2018-06-15T17:29:38.311Z,3.87
2018-06-15T17:32:07.295Z,2.43
2018-06-15T17:34:37.171Z,2.13
2018-06-15T17:37:05.871Z,3.00
2018-06-15T17:39:34.235Z,3.37
2018-06-15T17:42:02.609Z,2.53
2018-06-15T17:44:31.355Z,3.53
2018-06-15T17:46:59.727Z,3.50
2018-06-15T17:49:29.147Z,2.90
2018-06-15T17:51:57.804Z,2.87
2018-06-15T17:54:26.719Z,2.50
2018-06-15T17:56:55.272Z,2.00
2018-06-15T17:59:23.712Z,3.20
2018-06-15T18:01:52.077Z,2.93
2018-06-15T18:04:20.504Z,2.60
2018-06-15T18:06:49.303Z,3.00
2018-06-15T18:09:18.094Z,2.20
2018-06-15T18:11:46.880Z,2.70
2018-06-15T18:14:15.396Z,2.97
2018-06-15T18:16:44.056Z,2.93
2018-06-15T18:19:12.695Z,2.80
2018-06-15T18:21:41.197Z,2.97
2018-06-15T18:24:09.932Z,3.20
2018-06-15T18:26:39.122Z,2.60
2018-06-15T18:29:09.339Z,3.13
2018-06-15T18:31:38.230Z,2.50
2018-06-15T18:34:07.135Z,2.73
2018-06-15T18:36:35.818Z,2.70
2018-06-15T18:39:06.711Z,2.57
2018-06-15T18:41:35.504Z,2.30
2018-06-15T18:44:03.941Z,3.17
2018-06-15T18:46:32.887Z,2.80
2018-06-15T18:49:01.508Z,2.77
2018-06-15T18:51:29.887Z,2.73
2018-06-15T18:53:58.483Z,2.83
2018-06-15T18:56:26.894Z,2.43
2018-06-15T18:58:55.263Z,3.67
2018-06-15T19:01:23.631Z,3.40
2018-06-15T19:03:52.268Z,3.30
2018-06-15T19:06:21.487Z,3.13
2018-06-15T19:08:50.159Z,2.90
2018-06-15T19:11:18.510Z,2.57
2018-06-15T19:13:47.399Z,3.53
2018-06-15T19:16:16.630Z,3.50
2018-06-15T19:18:45.278Z,3.40
2018-06-15T19:21:13.935Z,2.97
2018-06-15T19:23:42.609Z,2.60
2018-06-15T19:26:10.984Z,3.80
2018-06-15T19:28:39.372Z,3.70
2018-06-15T19:31:07.799Z,3.63
2018-06-15T19:33:36.415Z,3.60
2018-06-15T19:36:04.534Z,2.83
2018-06-15T19:38:33.544Z,3.43
2018-06-15T19:41:01.939Z,2.73
2018-06-15T19:43:30.488Z,3.93
2018-06-15T19:45:59.079Z,3.73
2018-06-15T19:48:27.460Z,4.97
2018-06-15T19:50:56.191Z,4.27
2018-06-15T19:53:24.566Z,3.47
2018-06-15T19:55:52.643Z,3.73
2018-06-15T19:58:21.376Z,4.03
2018-06-15T20:00:50.195Z,3.83
2018-06-15T20:03:19.176Z,3.93
2018-06-15T20:05:48.379Z,4.37
2018-06-15T20:08:17.283Z,6.10
2018-06-15T20:10:46.131Z,4.47
2018-06-15T20:13:14.497Z,6.10
2018-06-15T20:15:42.847Z,3.87
2018-06-15T20:18:11.519Z,5.47
2018-06-15T20:20:39.585Z,5.33
2018-06-15T20:23:07.956Z,5.37
2018-06-15T20:25:36.319Z,4.43
2018-06-15T20:28:04.718Z,4.93
2018-06-15T20:30:33.350Z,5.47
2018-06-15T20:33:01.732Z,5.23
2018-06-15T20:35:30.391Z,4.33
2018-06-15T20:37:59.027Z,4.73
2018-06-15T20:40:27.747Z,4.67
2018-06-15T20:42:56.423Z,4.20
2018-06-15T20:45:24.762Z,3.90
2018-06-15T20:47:53.235Z,4.27
2018-06-15T20:50:21.883Z,4.20
2018-06-15T20:52:50.512Z,4.63
2018-06-15T20:55:19.153Z,4.90
2018-06-15T20:57:47.804Z,4.10
2018-06-15T21:00:16.280Z,5.00
2018-06-15T21:02:45.147Z,5.27
2018-06-15T21:05:13.503Z,5.00
2018-06-15T21:07:41.928Z,4.27
2018-06-15T21:10:10.403Z,5.23
2018-06-15T21:12:39.072Z,5.30
2018-06-15T21:15:07.755Z,5.43
2018-06-15T21:17:36.483Z,4.87
2018-06-15T21:20:05.152Z,5.10
2018-06-15T21:22:34.055Z,4.47
2018-06-15T21:25:02.428Z,5.40
2018-06-15T21:27:30.870Z,5.13
2018-06-15T21:29:59.767Z,5.80
2018-06-15T21:32:28.244Z,5.23
2018-06-15T21:34:56.594Z,6.23
2018-06-15T21:37:25.260Z,4.90
2018-06-15T21:39:53.639Z,4.80
2018-06-15T21:42:21.991Z,5.50
2018-06-15T21:44:50.615Z,5.13
2018-06-15T21:47:18.964Z,4.80
2018-06-15T21:49:47.335Z,4.50
2018-06-15T21:52:15.691Z,5.30
2018-06-15T21:54:44.368Z,3.80
2018-06-15T21:57:12.739Z,4.93
2018-06-15T21:59:41.128Z,4.30
2018-06-15T22:02:09.619Z,4.33
2018-06-15T22:04:37.991Z,4.47
2018-06-15T22:07:06.979Z,4.73
2018-06-15T22:09:36.124Z,4.10
2018-06-15T22:12:04.502Z,4.20
2018-06-15T22:14:33.207Z,3.80
2018-06-15T22:17:01.285Z,4.90
2018-06-15T22:19:29.635Z,4.47
2018-06-15T22:21:58.278Z,4.60
2018-06-15T22:24:26.944Z,5.03
2018-06-15T22:26:55.359Z,4.73
2018-06-15T22:29:24.075Z,4.63
2018-06-15T22:31:52.706Z,4.90
2018-06-15T22:34:21.112Z,4.60
2018-06-15T22:36:49.468Z,4.97
2018-06-15T22:39:17.851Z,5.33
2018-06-15T22:41:46.839Z,4.80
2018-06-15T22:44:15.211Z,4.60
2018-06-15T22:46:43.609Z,5.57
2018-06-15T22:49:12.794Z,4.50
2018-06-15T22:51:41.911Z,4.47
2018-06-15T22:54:10.374Z,5.90
2018-06-15T22:56:39.763Z,4.60
2018-06-15T22:59:08.131Z,4.60
2018-06-15T23:01:36.755Z,4.53
2018-06-15T23:04:05.159Z,3.87
2018-06-15T23:06:34.205Z,4.70
2018-06-15T23:09:02.915Z,5.90
2018-06-15T23:11:31.269Z,4.20
2018-06-15T23:13:59.851Z,4.20
2018-06-15T23:16:28.839Z,5.30
2018-06-15T23:18:57.731Z,5.63
2018-06-15T23:21:26.620Z,5.53
2018-06-15T23:23:55.310Z,5.70
2018-06-15T23:26:24.503Z,4.40
2018-06-15T23:28:53.495Z,5.13
2018-06-15T23:31:22.496Z,4.90
2018-06-15T23:33:51.632Z,5.90
2018-06-15T23:36:19.984Z,5.97
2018-06-15T23:38:48.651Z,4.80
2018-06-15T23:41:17.659Z,5.37
2018-06-15T23:43:46.535Z,4.67
2018-06-15T23:46:14.959Z,4.50
2018-06-15T23:48:43.347Z,4.03
2018-06-15T23:51:11.691Z,4.77
2018-06-15T23:53:40.060Z,6.13
2018-06-15T23:56:08.683Z,5.10
2018-06-15T23:58:37.291Z,4.50
